createdAt,value
2024-05-09T00:00:54.395Z,98803.63
2024-05-09T00:06:02.646Z,98803.19
2024-05-09T00:11:08.442Z,98799.13
2024-05-09T00:16:13.955Z,98808.91
2024-05-09T00:21:22.021Z,98814.19
2024-05-09T00:26:27.966Z,98809.84
2024-05-09T00:31:34.568Z,98796.66
2024-05-09T00:36:42.592Z,98803.34
2024-05-09T00:41:48.139Z,98805.09
2024-05-09T00:46:56.303Z,98796.00
2024-05-09T00:52:05.669Z,98793.56
2024-05-09T00:57:11.111Z,98795.97
2024-05-09T01:02:16.712Z,98797.00
2024-05-09T01:07:24.893Z,98787.66
2024-05-09T01:12:30.444Z,98789.34
2024-05-09T01:17:36.700Z,98791.53
2024-05-09T01:22:44.922Z,98790.16
2024-05-09T01:27:53.000Z,98795.59
2024-05-09T01:32:58.605Z,98790.28
2024-05-09T01:38:04.381Z,98791.28
2024-05-09T01:43:12.903Z,98797.69
2024-05-09T01:48:18.565Z,98796.50
2024-05-09T01:53:24.151Z,98789.94
2024-05-09T01:58:33.230Z,98779.38
2024-05-09T02:03:38.781Z,98778.34
2024-05-09T02:08:44.424Z,98789.25
2024-05-09T02:13:52.755Z,98790.34
2024-05-09T02:18:58.412Z,98798.28
2024-05-09T02:24:04.199Z,98786.97
2024-05-09T02:29:12.268Z,98791.19
2024-05-09T02:34:17.826Z,98783.75
2024-05-09T02:39:23.407Z,98783.28
2024-05-09T02:44:31.627Z,98785.56
2024-05-09T02:49:37.398Z,98787.50
2024-05-09T02:54:42.888Z,98783.94
2024-05-09T02:59:54.408Z,98783.88
2024-05-09T03:04:59.897Z,98792.56
2024-05-09T03:10:11.813Z,98790.19
2024-05-09T03:15:22.766Z,98797.94
2024-05-09T03:20:33.544Z,98796.91
2024-05-09T03:25:41.032Z,98789.16
2024-05-09T03:30:49.088Z,98790.88
2024-05-09T03:35:54.522Z,98799.06
2024-05-09T03:41:00.796Z,98793.47
2024-05-09T03:46:08.856Z,98799.53
2024-05-09T03:51:14.439Z,98792.53
2024-05-09T03:56:19.933Z,98797.25
2024-05-09T04:01:30.110Z,98799.69
2024-05-09T04:06:35.662Z,98802.09
2024-05-09T04:11:41.241Z,98804.06
2024-05-09T04:16:52.272Z,98810.94
2024-05-09T04:21:57.745Z,98805.75
2024-05-09T04:27:03.176Z,98810.06
2024-05-09T04:32:11.858Z,98816.75
2024-05-09T04:37:17.384Z,98819.28
2024-05-09T04:42:22.838Z,98809.72
2024-05-09T04:47:31.193Z,98803.59
2024-05-09T04:52:36.732Z,98807.59
2024-05-09T04:57:42.195Z,98805.19
2024-05-09T05:02:50.305Z,98800.19
2024-05-09T05:07:56.301Z,98807.13
2024-05-09T05:13:23.854Z,98808.16
2024-05-09T05:18:32.833Z,98802.97
2024-05-09T05:23:38.494Z,98810.09
2024-05-09T05:28:44.168Z,98813.25
2024-05-09T05:33:52.680Z,98816.50
2024-05-09T05:38:58.308Z,98813.25
2024-05-09T05:44:03.909Z,98811.91
2024-05-09T05:49:12.255Z,98809.84
2024-05-09T05:54:17.932Z,98808.50
2024-05-09T05:59:24.061Z,98810.91
2024-05-09T06:04:32.385Z,98808.91
2024-05-09T06:09:38.328Z,98813.88
2024-05-09T06:14:44.330Z,98810.19
2024-05-09T06:19:52.908Z,98804.13
2024-05-09T06:24:58.613Z,98798.50
2024-05-09T06:30:05.173Z,98794.66
2024-05-09T06:35:13.466Z,98799.44
2024-05-09T06:40:25.665Z,98796.22
2024-05-09T06:45:39.994Z,98780.94
2024-05-09T06:50:48.587Z,98787.09
2024-05-09T06:55:54.300Z,98794.44
2024-05-09T07:00:59.803Z,98789.81
2024-05-09T07:06:08.312Z,98794.38
2024-05-09T07:11:13.967Z,98786.75
2024-05-09T07:16:19.526Z,98779.59
2024-05-09T07:21:27.728Z,98776.75
2024-05-09T07:26:33.221Z,98781.69
2024-05-09T07:31:38.731Z,98782.41
2024-05-09T07:36:46.914Z,98773.63
2024-05-09T07:41:52.363Z,98770.38
2024-05-09T07:57:17.396Z,98758.63
2024-05-09T08:02:22.984Z,98755.19
2024-05-09T08:07:31.510Z,98745.19
2024-05-09T08:12:36.946Z,98739.50
2024-05-09T08:17:42.508Z,98750.53
2024-05-09T08:22:50.624Z,98738.91
2024-05-09T08:27:56.023Z,98737.34
2024-05-09T08:33:01.502Z,98738.72
2024-05-09T08:38:11.011Z,98733.69
2024-05-09T08:43:20.174Z,98732.28
2024-05-09T08:48:26.987Z,98726.00
2024-05-09T08:53:35.293Z,98724.50
2024-05-09T08:58:42.392Z,98731.88
2024-05-09T09:03:49.172Z,98722.88
2024-05-09T09:08:58.987Z,98728.19
2024-05-09T09:14:04.456Z,98723.84
2024-05-09T09:19:10.075Z,98723.19
2024-05-09T09:24:18.249Z,98719.56
2024-05-09T09:29:24.227Z,98730.34
2024-05-09T09:34:31.336Z,98733.19
2024-05-09T09:39:48.956Z,98728.41
2024-05-09T09:45:03.886Z,98716.34
2024-05-09T09:50:16.674Z,98723.19
2024-05-09T09:55:26.186Z,98714.53
2024-05-09T10:00:33.429Z,98719.59
2024-05-09T10:05:42.188Z,98713.03
2024-05-09T10:10:52.700Z,98715.91
2024-05-09T10:15:58.340Z,98718.22
2024-05-09T10:21:04.284Z,98711.69
2024-05-09T10:26:12.574Z,98710.72
2024-05-09T10:31:19.384Z,98706.03
2024-05-09T10:36:26.190Z,98710.47
2024-05-09T10:41:34.248Z,98713.59
2024-05-09T10:46:39.893Z,98706.31
2024-05-09T10:51:47.202Z,98704.75
2024-05-09T10:57:02.188Z,98699.06
2024-05-09T11:02:09.517Z,98698.78
2024-05-09T11:07:18.350Z,98697.16
2024-05-09T11:12:26.663Z,98688.44
2024-05-09T11:17:40.469Z,98684.66
2024-05-09T11:22:46.086Z,98661.31
2024-05-09T11:27:54.229Z,98671.66
2024-05-09T11:32:59.974Z,98667.69
2024-05-09T11:38:05.637Z,98662.16
2024-05-09T11:43:13.894Z,98656.97
2024-05-09T11:48:19.931Z,98646.63
2024-05-09T11:53:25.605Z,98659.63
2024-05-09T11:58:34.887Z,98647.69
2024-05-09T12:03:40.600Z,98644.06
2024-05-09T12:08:46.287Z,98641.03
2024-05-09T12:13:54.378Z,98635.41
2024-05-09T12:18:59.978Z,98633.16
2024-05-09T12:24:05.500Z,98642.66
2024-05-09T12:29:13.943Z,98632.19
2024-05-09T12:34:19.802Z,98622.44
2024-05-09T12:39:25.300Z,98626.66
2024-05-09T12:44:33.411Z,98615.19
2024-05-09T12:49:38.998Z,98622.44
2024-05-09T12:54:44.658Z,98610.47
2024-05-09T12:59:52.795Z,98599.69
2024-05-09T13:04:58.397Z,98591.31
2024-05-09T13:10:04.646Z,98601.38
2024-05-09T13:15:13.961Z,98593.38
2024-05-09T13:20:28.892Z,98587.72
2024-05-09T13:25:38.599Z,98586.81
2024-05-09T13:30:46.791Z,98574.25
2024-05-09T13:35:52.303Z,98573.63
2024-05-09T13:40:57.761Z,98574.00
2024-05-09T13:46:05.969Z,98566.56
2024-05-09T13:51:11.451Z,98562.22
2024-05-09T13:56:16.935Z,98556.41
2024-05-09T14:01:25.022Z,98549.88
2024-05-09T14:06:30.995Z,98547.66
2024-05-09T14:11:36.668Z,98531.34
2024-05-09T14:16:45.917Z,98536.28
2024-05-09T14:21:51.510Z,98530.69
2024-05-09T14:26:57.000Z,98522.03
2024-05-09T14:32:05.916Z,98516.13
2024-05-09T14:37:11.859Z,98520.03
2024-05-09T14:42:17.912Z,98511.75
2024-05-09T14:47:26.216Z,98499.06
2024-05-09T14:52:31.743Z,98501.66
2024-05-09T14:57:37.906Z,98508.75
2024-05-09T15:02:46.617Z,98498.63
2024-05-09T15:07:53.459Z,98494.25
2024-05-09T15:12:58.947Z,98488.97
2024-05-09T15:18:07.671Z,98475.28
2024-05-09T15:23:13.403Z,98478.66
2024-05-09T15:28:19.126Z,98481.75
2024-05-09T15:33:27.970Z,98460.94
2024-05-09T15:38:33.707Z,98474.59
2024-05-09T15:43:39.222Z,98476.16
2024-05-09T15:48:47.525Z,98476.69
2024-05-09T15:53:53.084Z,98467.22
2024-05-09T15:58:58.734Z,98457.44
2024-05-09T16:04:06.970Z,98461.34
2024-05-09T16:09:12.723Z,98459.75
2024-05-09T16:14:19.030Z,98465.38
2024-05-09T16:19:27.052Z,98466.16
2024-05-09T16:24:32.496Z,98458.63
2024-05-09T16:29:38.406Z,98462.31
2024-05-09T16:34:46.484Z,98457.94
2024-05-09T16:39:52.070Z,98447.69
2024-05-09T16:44:57.531Z,98456.94
2024-05-09T16:50:08.375Z,98450.84
2024-05-09T16:55:14.184Z,98453.44
2024-05-09T17:00:30.937Z,98453.03
2024-05-09T17:05:47.997Z,98443.91
2024-05-09T17:10:54.091Z,98439.34
2024-05-09T17:15:59.734Z,98443.19
2024-05-09T17:21:08.488Z,98451.47
2024-05-09T17:26:14.181Z,98444.66
2024-05-09T17:31:19.911Z,98446.56
2024-05-09T17:36:28.275Z,98441.28
2024-05-09T17:41:33.707Z,98451.09
2024-05-09T17:46:39.344Z,98447.34
2024-05-09T17:51:56.949Z,98449.66
2024-05-09T17:57:02.470Z,98450.84
2024-05-09T18:02:08.361Z,98450.41
2024-05-09T18:07:17.084Z,98446.34
2024-05-09T18:12:22.661Z,98456.03
2024-05-09T18:17:28.328Z,98450.28
2024-05-09T18:22:36.470Z,98453.59
2024-05-09T18:27:42.113Z,98452.84
2024-05-09T18:32:48.295Z,98462.38
2024-05-09T18:37:57.793Z,98463.13
2024-05-09T18:43:04.214Z,98468.06
2024-05-09T18:48:12.202Z,98472.34
2024-05-09T18:53:20.539Z,98469.56
2024-05-09T18:58:26.020Z,98469.38
2024-05-09T19:03:31.739Z,98484.59
2024-05-09T19:08:40.155Z,98478.59
2024-05-09T19:13:45.825Z,98495.75
2024-05-09T19:18:51.711Z,98501.25
2024-05-09T19:24:00.222Z,98502.91
2024-05-09T19:29:05.669Z,98507.41
2024-05-09T19:34:11.157Z,98516.09
2024-05-09T19:39:19.312Z,98516.28
2024-05-09T19:44:25.007Z,98517.69
2024-05-09T19:49:30.779Z,98514.47
2024-05-09T19:54:39.128Z,98518.00
2024-05-09T19:59:44.814Z,98522.78
2024-05-09T20:04:50.656Z,98534.50
2024-05-09T20:09:58.799Z,98545.84
2024-05-09T20:15:04.804Z,98548.75
2024-05-09T20:20:20.271Z,98538.38
2024-05-09T20:25:36.325Z,98540.00
2024-05-09T20:30:42.039Z,98540.78
2024-05-09T20:35:47.647Z,98532.03
2024-05-09T20:40:55.814Z,98539.34
2024-05-09T20:46:01.308Z,98535.44
2024-05-09T20:51:07.012Z,98535.75
2024-05-09T20:56:15.118Z,98537.34
2024-05-09T21:01:20.674Z,98531.25
2024-05-09T21:06:26.190Z,98528.13
2024-05-09T21:11:34.358Z,98525.81
2024-05-09T21:16:40.087Z,98530.66
2024-05-09T21:21:45.875Z,98529.41
2024-05-09T21:26:56.617Z,98533.34
2024-05-09T21:32:02.060Z,98535.16
2024-05-09T21:37:07.984Z,98530.94
2024-05-09T21:42:16.074Z,98534.19
2024-05-09T21:47:21.652Z,98522.50
2024-05-09T21:52:27.246Z,98521.94
2024-05-09T21:57:35.366Z,98518.66
2024-05-09T22:02:40.892Z,98527.31
2024-05-09T22:07:46.365Z,98522.88
2024-05-09T22:12:54.439Z,98527.72
2024-05-09T22:18:00.281Z,98529.47
2024-05-09T22:23:05.897Z,98524.13
2024-05-09T22:28:16.697Z,98516.16
2024-05-09T22:33:22.539Z,98518.44
2024-05-09T22:38:28.048Z,98513.81
2024-05-09T22:43:36.286Z,98524.09
2024-05-09T22:48:41.867Z,98524.88
2024-05-09T22:53:47.481Z,98530.56
2024-05-09T22:58:55.511Z,98531.94
2024-05-09T23:04:01.160Z,98534.97
2024-05-09T23:09:08.309Z,98534.47
2024-05-09T23:14:17.959Z,98526.66
2024-05-09T23:19:23.531Z,98531.53
2024-05-09T23:24:29.016Z,98528.53
2024-05-09T23:29:37.171Z,98516.09
2024-05-09T23:34:42.676Z,98522.75
2024-05-09T23:39:48.220Z,98531.00
2024-05-09T23:44:58.426Z,98533.44
2024-05-09T23:50:06.802Z,98531.69
2024-05-09T23:55:14.545Z,98533.69
